Time;durP1;ratioP1;P1;durP2;ratioP2;P2;SDS_P1;SDS_P2;PMS_P1;PMS_P2;Temp;Humidity;BMP_temperature;BMP_pressure;BME280_temperature;BME280_humidity;BME280_pressure;Samples;Min_cycle;Max_cycle;Signal;HPM_P1;HPM_P2
2022/07/11 00:01:56;;;;;;;3.33;2.35;;;;;;;13.36;78.40;100488.03;2733191;86;21047;-87
2022/07/11 00:05:57;;;;;;;9.58;2.62;;;;;;;13.17;79.28;100500.88;2713052;86;21075;-87
2022/07/11 00:09:58;;;;;;;4.45;2.92;;;;;;;13.11;79.28;100492.92;2740969;85;21568;-87
2022/07/11 00:13:59;;;;;;;3.45;2.25;;;;;;;13.02;80.08;100491.09;2815218;83;21239;-87
2022/07/11 00:18:00;;;;;;;5.72;2.33;;;;;;;12.93;80.57;100488.23;2774872;85;21084;-87
2022/07/11 00:22:03;;;;;;;5.33;2.65;;;;;;;12.88;80.75;100485.64;2815373;84;21313;-87
2022/07/11 00:26:05;;;;;;;7.70;3.25;;;;;;;12.83;80.80;100487.38;2804021;84;21067;-84
2022/07/11 00:30:08;;;;;;;8.23;2.52;;;;;;;12.74;81.16;100482.83;2791459;84;21598;-86
2022/07/11 00:34:10;;;;;;;4.33;2.87;;;;;;;12.63;81.50;100477.97;2789242;84;21013;-87
2022/07/11 00:38:11;;;;;;;4.90;2.80;;;;;;;12.56;81.69;100477.66;2809217;84;21045;-87
2022/07/11 00:42:17;;;;;;;7.75;2.50;;;;;;;12.46;82.61;100475.42;2798895;84;21004;-87
2022/07/11 00:46:19;;;;;;;8.53;2.60;;;;;;;12.40;80.81;100476.82;2795925;83;21078;-86
2022/07/11 00:50:21;;;;;;;4.12;2.65;;;;;;;12.32;80.50;100467.29;2848628;83;21017;-86
2022/07/11 00:54:23;;;;;;;5.50;3.05;;;;;;;12.23;80.52;100469.43;2772170;84;21670;-86
2022/07/11 00:58:24;;;;;;;5.53;2.55;;;;;;;12.11;80.77;100462.83;2785762;85;21029;-86
2022/07/11 01:02:26;;;;;;;8.63;2.85;;;;;;;11.93;81.99;100463.03;2784763;84;21040;-86
2022/07/11 01:06:27;;;;;;;3.70;2.12;;;;;;;11.87;82.70;100460.39;2784582;84;21043;-87
2022/07/11 01:10:28;;;;;;;3.75;2.52;;;;;;;11.92;82.63;100462.67;2786558;84;21384;-87
2022/07/11 01:14:29;;;;;;;4.47;2.37;;;;;;;11.87;83.26;100459.06;2803805;83;21035;-86
2022/07/11 01:18:31;;;;;;;7.37;2.85;;;;;;;11.84;83.36;100461.52;2809265;83;21072;-85
2022/07/11 01:22:40;;;;;;;4.30;2.62;;;;;;;11.71;84.77;100468.84;2799721;83;21040;-86
2022/07/11 01:26:43;;;;;;;5.35;2.65;;;;;;;11.64;85.72;100467.68;2790877;85;21013;-87
2022/07/11 01:30:45;;;;;;;5.42;2.62;;;;;;;11.70;85.72;100467.16;2782513;84;21583;-86
2022/07/11 01:34:46;;;;;;;7.35;2.98;;;;;;;11.73;86.23;100463.41;2761264;83;21047;-87
2022/07/11 01:38:47;;;;;;;4.25;3.10;;;;;;;11.77;86.27;100464.32;2760290;83;21041;-87
2022/07/11 01:42:48;;;;;;;6.60;2.17;;;;;;;11.88;85.94;100467.41;2830351;82;21068;-87
2022/07/11 01:46:49;;;;;;;5.33;2.72;;;;;;;11.99;86.22;100462.03;2796366;83;21001;-87
2022/07/11 01:50:51;;;;;;;3.70;2.52;;;;;;;12.05;86.28;100459.36;2728822;85;21049;-87
2022/07/11 01:54:52;;;;;;;5.35;2.58;;;;;;;12.07;86.87;100460.07;2798703;83;21072;-87
2022/07/11 01:58:53;;;;;;;5.58;2.25;;;;;;;12.12;87.38;100457.85;2827322;83;21591;-87
2022/07/11 02:02:55;;;;;;;3.08;2.00;;;;;;;12.27;86.99;100461.52;2790815;85;21417;-87
2022/07/11 02:06:56;;;;;;;4.95;2.58;;;;;;;12.40;86.97;100460.81;2821118;83;21052;-87
2022/07/11 02:10:58;;;;;;;4.60;2.65;;;;;;;12.53;86.88;100462.39;2793489;83;21072;-87
2022/07/11 02:14:59;;;;;;;2.33;1.87;;;;;;;12.63;86.54;100459.28;2781659;84;21634;-87
2022/07/11 02:19:00;;;;;;;7.50;2.60;;;;;;;12.69;86.40;100469.41;2810335;84;21024;-87
2022/07/11 02:23:03;;;;;;;5.85;3.15;;;;;;;12.82;86.46;100459.00;2705546;84;21020;-87
2022/07/11 02:27:05;;;;;;;9.13;3.42;;;;;;;12.97;85.48;100462.11;2814947;83;21033;-86
2022/07/11 02:31:06;;;;;;;7.92;3.37;;;;;;;13.11;85.05;100459.06;2770837;84;21322;-87
2022/07/11 02:35:07;;;;;;;4.12;2.42;;;;;;;13.26;84.40;100457.30;2804459;83;21024;-87
2022/07/11 02:39:08;;;;;;;5.40;2.40;;;;;;;13.23;84.31;100462.92;2807855;84;20985;-87
2022/07/11 02:43:10;;;;;;;12.05;3.15;;;;;;;13.34;84.34;100465.95;2791834;84;21057;-87
2022/07/11 02:47:11;;;;;;;8.38;4.17;;;;;;;13.37;83.75;100471.05;2764591;83;21085;-87
2022/07/11 02:51:13;;;;;;;3.17;2.22;;;;;;;13.35;83.53;100471.64;2766697;83;21641;-87
2022/07/11 02:55:15;;;;;;;4.17;2.47;;;;;;;13.28;83.87;100474.89;2768220;83;21085;-86
2022/07/11 02:59:16;;;;;;;9.35;3.00;;;;;;;13.35;83.88;100475.66;2747002;83;21022;-87
2022/07/11 03:03:17;;;;;;;4.80;2.95;;;;;;;13.22;84.20;100472.78;2792226;84;21034;-90
2022/07/11 03:07:22;;;;;;;8.58;2.90;;;;;;;13.21;84.11;100469.75;2785363;85;21532;-89
2022/07/11 03:11:23;;;;;;;5.87;2.42;;;;;;;13.20;84.13;100477.42;2751949;85;21052;-88
2022/07/11 03:15:24;;;;;;;11.48;2.62;;;;;;;13.17;84.13;100479.52;2768062;85;21084;-88
2022/07/11 03:19:25;;;;;;;5.15;2.15;;;;;;;12.99;84.58;100476.17;2807025;84;21597;-88
2022/07/11 03:23:26;;;;;;;7.28;2.45;;;;;;;12.82;85.38;100483.84;2810323;83;21025;-88
2022/07/11 03:27:28;;;;;;;6.30;2.50;;;;;;;12.75;85.75;100488.53;2728809;85;21700;-89
2022/07/11 03:31:29;;;;;;;5.20;2.20;;;;;;;12.78;85.63;100491.78;2753414;86;21015;-88
2022/07/11 03:35:42;;;;;;;7.62;2.80;;;;;;;12.78;85.82;100492.28;2760643;85;21618;-89
2022/07/11 03:39:43;;;;;;;6.72;2.30;;;;;;;12.90;85.85;100481.84;2777652;84;21631;-88
2022/07/11 03:43:45;;;;;;;7.15;2.60;;;;;;;12.78;86.36;100492.28;2814884;84;21040;-87
2022/07/11 03:47:48;;;;;;;15.58;2.98;;;;;;;12.86;86.30;100504.45;2783802;84;21421;-88
2022/07/11 03:51:52;;;;;;;12.88;3.15;;;;;;;12.90;86.13;100491.19;2787865;83;21478;-88
2022/07/11 03:55:53;;;;;;;6.47;2.35;;;;;;;12.87;86.16;100506.14;2801674;83;20998;-89
2022/07/11 03:59:55;;;;;;;5.10;2.90;;;;;;;12.83;86.56;100502.06;2728531;85;21124;-89
2022/07/11 04:03:56;;;;;;;10.30;3.08;;;;;;;12.88;87.05;100506.50;2750285;85;21250;-89
2022/07/11 04:07:57;;;;;;;10.60;2.87;;;;;;;13.03;86.97;100494.11;2794819;84;21004;-89
2022/07/11 04:11:59;;;;;;;4.85;2.60;;;;;;;13.30;86.73;100494.80;2799895;83;21078;-88
2022/07/11 04:16:00;;;;;;;6.20;3.52;;;;;;;13.61;85.72;100493.86;2792052;83;21044;-89
2022/07/11 04:20:02;;;;;;;7.08;3.22;;;;;;;13.97;84.55;100502.15;2792870;84;21040;-91
2022/07/11 04:24:04;;;;;;;4.58;2.52;;;;;;;14.22;82.95;100511.88;2810441;84;21048;-90
2022/07/11 04:28:06;;;;;;;7.00;2.98;;;;;;;14.72;81.16;100505.41;2793647;84;21364;-90
2022/07/11 04:32:08;;;;;;;4.03;2.02;;;;;;;15.20;75.73;100504.81;2791834;84;21057;-89
2022/07/11 04:36:09;;;;;;;17.35;2.37;;;;;;;15.38;74.56;100508.02;2751872;85;21042;-90
2022/07/11 04:40:11;;;;;;;4.20;2.37;;;;;;;15.30;74.44;100507.91;2730170;86;21594;-89
2022/07/11 04:44:12;;;;;;;6.08;2.77;;;;;;;15.48;73.84;100505.26;2737586;86;21128;-91
2022/07/11 04:48:13;;;;;;;5.47;2.37;;;;;;;15.64;74.36;100512.61;2726027;86;21685;-90
2022/07/11 04:52:14;;;;;;;16.15;2.77;;;;;;;15.98;71.98;100506.56;2754419;86;21117;-91
2022/07/11 04:56:16;;;;;;;5.72;2.17;;;;;;;16.82;70.00;100516.30;2698631;86;21512;-90
2022/07/11 05:00:18;;;;;;;5.80;1.92;;;;;;;17.60;67.02;100509.97;2740159;84;21111;-92
2022/07/11 05:04:19;;;;;;;3.55;1.65;;;;;;;18.13;64.48;100515.39;2734572;86;21103;-91
2022/07/11 05:08:21;;;;;;;4.53;1.95;;;;;;;18.38;63.65;100508.61;2732721;86;21351;-90
2022/07/11 05:12:22;;;;;;;9.30;1.87;;;;;;;18.37;63.20;100516.35;2727142;84;21097;-91
2022/07/11 05:16:23;;;;;;;6.28;1.87;;;;;;;18.60;62.83;100525.05;2732170;85;21053;-90
2022/07/11 05:20:24;;;;;;;15.63;2.75;;;;;;;18.64;62.48;100525.55;2706913;86;21604;-90
2022/07/11 05:24:25;;;;;;;6.08;2.02;;;;;;;18.96;62.66;100529.11;2681949;85;21041;-91
2022/07/11 05:28:27;;;;;;;6.37;1.80;;;;;;;19.40;62.41;100535.84;2733538;85;21073;-90
2022/07/11 05:32:28;;;;;;;29.67;3.77;;;;;;;19.09;62.20;100532.13;2736795;86;21836;-91
2022/07/11 05:36:29;;;;;;;3.33;1.90;;;;;;;18.58;63.74;100537.02;2742694;85;21081;-91
2022/07/11 05:40:31;;;;;;;2.05;1.42;;;;;;;18.16;65.02;100538.94;2658944;86;21063;-90
2022/07/11 05:44:32;;;;;;;4.80;1.77;;;;;;;17.68;66.66;100540.89;2717080;86;21536;-90
2022/07/11 05:48:33;;;;;;;2.72;1.75;;;;;;;18.15;66.29;100533.22;2740048;86;20980;-90
2022/07/11 05:52:34;;;;;;;5.05;1.95;;;;;;;18.96;64.56;100533.16;2708915;85;21640;-88
2022/07/11 05:56:36;;;;;;;3.27;1.95;;;;;;;18.95;64.75;100529.64;2723412;85;21130;-90
2022/07/11 06:00:37;;;;;;;38.30;5.75;;;;;;;18.81;64.78;100534.41;2777191;84;21086;-89
2022/07/11 06:04:38;;;;;;;7.20;1.30;;;;;;;18.47;65.62;100532.81;2772899;84;21077;-90
2022/07/11 06:08:40;;;;;;;4.90;1.32;;;;;;;18.12;67.24;100532.55;2729304;85;21143;-89
2022/07/11 06:12:41;;;;;;;3.22;0.95;;;;;;;17.72;68.45;100532.00;2747456;84;21077;-89
2022/07/11 06:16:43;;;;;;;4.83;1.77;;;;;;;17.38;69.74;100540.52;2780824;84;21570;-89
2022/07/11 06:20:44;;;;;;;3.40;1.35;;;;;;;17.17;70.77;100543.16;2799050;84;21050;-89
2022/07/11 06:24:45;;;;;;;7.35;1.67;;;;;;;17.10;71.84;100544.82;2806518;83;21040;-88
2022/07/11 06:28:46;;;;;;;14.73;2.25;;;;;;;17.02;72.78;100539.39;2782093;84;21001;-90
2022/07/11 06:32:48;;;;;;;6.78;1.67;;;;;;;17.06;73.19;100543.44;2826621;82;21076;-89
2022/07/11 06:36:49;;;;;;;3.90;2.17;;;;;;;17.09;73.53;100540.42;2809196;83;21045;-89
2022/07/11 06:40:51;;;;;;;19.87;5.87;;;;;;;17.15;73.24;100532.22;2781721;84;21048;-88
2022/07/11 06:44:54;;;;;;;7.60;1.70;;;;;;;17.28;73.69;100536.11;2784761;83;21040;-90
2022/07/11 06:48:55;;;;;;;5.35;2.12;;;;;;;17.59;73.34;100539.22;2780967;84;21594;-90
2022/07/11 06:52:57;;;;;;;4.35;1.90;;;;;;;17.81;71.48;100537.73;2783762;84;21022;-90
2022/07/11 06:56:58;;;;;;;7.05;1.85;;;;;;;18.16;71.07;100530.86;2788183;84;20997;-90
2022/07/11 07:01:03;;;;;;;2.42;1.77;;;;;;;18.40;68.75;100530.81;2805492;83;21041;-89
2022/07/11 07:05:07;;;;;;;7.30;2.25;;;;;;;18.54;68.95;100527.09;2781117;84;21929;-90
2022/07/11 07:09:08;;;;;;;12.05;3.27;;;;;;;18.56;67.99;100522.37;2789174;83;21658;-90
2022/07/11 07:13:10;;;;;;;7.97;1.92;;;;;;;18.59;67.65;100528.75;2785637;84;29572;-89
2022/07/11 07:17:12;;;;;;;4.95;2.45;;;;;;;18.73;66.83;100530.41;2756548;83;22166;-89
2022/07/11 07:21:13;;;;;;;3.33;1.45;;;;;;;18.79;66.42;100536.44;2835915;83;20984;-88
2022/07/11 07:25:14;;;;;;;5.83;1.50;;;;;;;18.64;66.31;100533.11;2743475;84;21035;-90
2022/07/11 07:29:15;;;;;;;10.90;2.10;;;;;;;18.50;66.76;100539.23;2814735;83;21068;-88
2022/07/11 07:33:17;;;;;;;5.60;2.65;;;;;;;18.48;67.08;100546.13;2815379;83;21020;-89
2022/07/11 07:37:18;;;;;;;5.65;1.82;;;;;;;18.22;70.31;100561.98;2815517;84;21047;-90
2022/07/11 07:41:20;;;;;;;8.55;2.12;;;;;;;17.61;77.37;100590.99;2785422;82;21530;-90
2022/07/11 07:45:21;;;;;;;4.47;1.90;;;;;;;17.37;80.25;100558.48;2818576;82;21022;-88
2022/07/11 07:49:22;;;;;;;10.95;5.55;;;;;;;16.78;85.78;100560.58;2763482;84;21047;-89
2022/07/11 07:53:24;;;;;;;7.42;3.25;;;;;;;16.54;88.93;100558.61;2828997;82;21046;-91
2022/07/11 07:57:25;;;;;;;4.35;1.80;;;;;;;16.46;90.95;100570.62;2763083;84;21020;-90
2022/07/11 08:01:35;;;;;;;9.13;2.55;;;;;;;16.55;90.89;100558.44;2779985;83;21851;-90
2022/07/11 08:05:37;;;;;;;7.80;2.08;;;;;;;16.91;92.74;100554.79;2840994;82;20990;-92
2022/07/11 08:09:39;;;;;;;6.17;2.22;;;;;;;17.04;90.71;100558.88;2808537;82;21031;-92
2022/07/11 08:13:40;;;;;;;10.80;2.52;;;;;;;17.09;90.14;100559.23;2793199;84;21132;-87
2022/07/11 08:17:41;;;;;;;8.10;2.08;;;;;;;17.26;92.75;100563.66;2782000;82;21082;-92
2022/07/11 08:21:43;;;;;;;3.42;1.67;;;;;;;17.44;88.15;100560.54;2762483;85;21027;-91
2022/07/11 08:25:47;;;;;;;4.92;2.52;;;;;;;17.42;86.32;100564.73;2795409;83;21007;-92
2022/07/11 08:29:48;;;;;;;13.43;4.28;;;;;;;17.80;86.14;100553.55;2730042;85;21061;-90
2022/07/11 08:33:51;;;;;;;5.70;2.67;;;;;;;18.30;83.92;100561.14;2828600;82;21095;-91
2022/07/11 08:37:53;;;;;;;9.38;2.35;;;;;;;18.75;82.89;100552.63;2845596;82;20995;-92
2022/07/11 08:41:54;;;;;;;4.65;1.40;;;;;;;18.93;76.07;100547.84;2845326;83;21084;-91
2022/07/11 08:45:57;;;;;;;4.97;1.87;;;;;;;19.03;77.24;100553.06;2761976;83;21077;-92
2022/07/11 08:49:59;;;;;;;5.50;2.30;;;;;;;19.04;75.65;100557.92;2811067;83;21001;-91
2022/07/11 08:54:01;;;;;;;3.75;1.85;;;;;;;19.44;74.77;100539.03;2787053;83;21584;-91
2022/07/11 08:58:02;;;;;;;6.50;2.45;;;;;;;19.68;74.18;100553.70;2761099;84;21005;-90
2022/07/11 09:02:06;;;;;;;6.95;2.00;;;;;;;19.50;71.49;100555.34;2759800;84;21001;-93
2022/07/11 09:06:07;;;;;;;8.10;2.70;;;;;;;19.51;72.55;100552.98;2766224;84;20958;-91
2022/07/11 09:10:09;;;;;;;17.60;3.92;;;;;;;19.36;71.40;100543.96;2815227;84;21013;-92
2022/07/11 09:14:30;;;;;;;3.22;1.77;;;;;;;19.52;72.26;100530.38;2810078;84;21084;-89
2022/07/11 09:18:38;;;;;;;2.95;1.72;;;;;;;19.44;70.72;100528.23;2792265;84;21000;-92
2022/07/11 09:26:59;;;;;;;4.42;2.08;;;;;;;19.57;71.15;100541.98;2796095;83;21522;-91
2022/07/11 09:31:06;;;;;;;2.98;1.45;;;;;;;20.01;68.49;100524.81;2801924;83;21037;-91
2022/07/11 09:35:11;;;;;;;2.70;1.55;;;;;;;20.15;67.19;100529.91;2799001;83;21037;-90
2022/07/11 09:39:19;;;;;;;7.00;1.92;;;;;;;20.12;65.22;100525.70;2793526;84;21110;-91
2022/07/11 09:43:26;;;;;;;4.37;2.00;;;;;;;20.02;65.08;100510.29;2804377;83;21595;-91
2022/07/11 09:47:29;;;;;;;4.70;2.47;;;;;;;19.88;64.38;100515.95;2759375;84;21049;-93
2022/07/11 09:51:36;;;;;;;4.72;1.22;;;;;;;19.89;64.64;100519.80;2810765;83;21065;-87
2022/07/11 09:55:45;;;;;;;8.93;1.77;;;;;;;19.95;65.24;100508.33;2788388;84;21551;-92
2022/07/11 09:59:52;;;;;;;5.30;1.05;;;;;;;19.97;66.07;100514.87;2812810;82;21045;-82
2022/07/11 10:03:54;;;;;;;4.97;1.27;;;;;;;20.35;64.99;100502.70;2806050;83;21726;-92
2022/07/11 10:07:58;;;;;;;3.72;1.12;;;;;;;20.83;63.51;100495.59;2785720;85;20993;-88
2022/07/11 10:11:59;;;;;;;7.33;2.12;;;;;;;20.90;63.11;100508.34;2782058;85;21021;-93
2022/07/11 10:16:06;;;;;;;5.17;1.20;;;;;;;20.94;61.78;100501.02;2790126;84;21094;-91
2022/07/11 10:20:22;;;;;;;2.72;0.70;;;;;;;20.97;61.81;100505.22;2783219;85;21043;-92
2022/07/11 10:24:52;;;;;;;3.67;1.00;;;;;;;20.60;62.21;100505.65;2775292;83;21403;-94
2022/07/11 10:28:57;;;;;;;2.92;1.52;;;;;;;20.25;66.98;100519.17;2791207;85;21071;-90
2022/07/11 10:32:59;;;;;;;;;;;;;;;19.48;67.36;100522.81;2785010;85;21045;-94
2022/07/11 10:37:04;;;;;;;2.90;0.72;;;;;;;19.19;68.38;100519.77;2791995;85;20199;-91
2022/07/11 10:41:11;;;;;;;1.80;0.82;;;;;;;19.47;69.60;100502.25;2795187;84;21028;-85
2022/07/11 10:45:12;;;;;;;3.35;1.07;;;;;;;19.80;67.89;100515.50;2781153;83;21095;-89
2022/07/11 10:53:24;;;;;;;2.25;1.00;;;;;;;19.78;63.84;100506.23;2801021;83;21053;-87
2022/07/11 10:57:44;;;;;;;1.67;0.98;;;;;;;20.12;65.10;100507.66;2791050;83;21040;-88
2022/07/11 11:02:10;;;;;;;3.08;1.35;;;;;;;20.62;61.84;100499.54;2783645;85;20961;-89
2022/07/11 11:06:12;;;;;;;9.50;1.47;;;;;;;21.29;58.79;100511.72;2787932;84;21397;-89
2022/07/11 11:10:38;;;;;;;0.95;0.80;;;;;;;21.80;57.97;100500.79;2809575;84;20990;-91
2022/07/11 11:14:37;;;;;;;6.62;1.77;;;;;;;21.79;55.61;100502.36;2778531;84;21671;-91
2022/07/11 11:18:44;;;;;;;3.85;0.90;;;;;;;21.93;54.88;100500.09;2783913;85;21068;-90
2022/07/11 11:23:07;;;;;;;3.37;1.15;;;;;;;22.45;55.02;100500.34;2784639;84;21089;-91
2022/07/11 11:27:19;;;;;;;1.98;0.40;;;;;;;22.71;53.75;100497.48;2783538;83;21028;-90
2022/07/11 11:31:20;;;;;;;2.72;0.95;;;;;;;22.60;54.09;100497.53;2708738;85;20957;-88
2022/07/11 11:35:22;;;;;;;1.75;0.55;;;;;;;22.32;53.30;100496.50;2760703;84;21065;-92
2022/07/11 11:39:38;;;;;;;2.70;1.07;;;;;;;22.21;53.15;100499.24;2799782;83;21107;-91
2022/07/11 11:43:44;;;;;;;2.47;0.70;;;;;;;22.17;55.62;100489.84;2802364;83;21021;-89
2022/07/11 11:47:49;;;;;;;0.85;0.45;;;;;;;22.31;54.07;100491.30;2809004;83;21096;-90
2022/07/11 11:51:56;;;;;;;4.22;1.12;;;;;;;22.66;52.36;100483.16;2807895;83;21039;-92
2022/07/11 11:55:57;;;;;;;1.05;0.70;;;;;;;23.07;51.48;100485.53;2773166;83;21037;-91
2022/07/11 11:59:59;;;;;;;27.50;2.55;;;;;;;23.01;52.57;100495.84;2804353;83;21637;-88
2022/07/11 12:04:12;;;;;;;7.10;1.37;;;;;;;23.36;50.73;100506.59;2792119;83;20981;-92
2022/07/11 12:08:28;;;;;;;1.82;0.90;;;;;;;23.73;51.94;100492.67;2786269;85;21601;-92
2022/07/11 12:16:49;;;;;;;5.72;0.95;;;;;;;23.97;49.13;100500.70;2723949;86;21167;-88
2022/07/11 12:20:51;;;;;;;1.92;0.80;;;;;;;23.56;50.17;100493.08;2765646;85;21068;-93
2022/07/11 12:24:53;;;;;;;2.40;0.53;;;;;;;23.19;51.32;100497.47;2774718;85;21077;-92
2022/07/11 12:29:20;;;;;;;3.20;0.60;;;;;;;22.65;51.90;100497.75;2770460;84;21121;-89
2022/07/11 12:33:23;;;;;;;1.75;0.40;;;;;;;22.36;53.92;100499.13;2771452;85;21552;-89
2022/07/11 12:37:28;;;;;;;1.37;0.47;;;;;;;21.85;54.66;100519.70;2773762;85;21526;-87
2022/07/11 12:41:32;;;;;;;0.47;0.20;;;;;;;21.75;52.93;100521.38;2753657;85;21029;-89
2022/07/11 12:45:33;;;;;;;1.12;0.55;;;;;;;21.91;50.49;100516.20;2768801;85;21061;-89
2022/07/11 12:49:35;;;;;;;4.87;0.72;;;;;;;22.10;49.54;100510.11;2770831;84;21565;-91
2022/07/11 12:53:36;;;;;;;1.10;0.42;;;;;;;22.19;50.47;100518.08;2682543;84;21072;-89
2022/07/11 12:57:38;;;;;;;2.08;0.62;;;;;;;22.30;49.98;100518.89;2729278;84;21498;-91
2022/07/11 13:01:57;;;;;;;2.72;0.40;;;;;;;22.19;51.00;100556.00;2742509;84;21089;-89
2022/07/11 13:05:59;;;;;;;2.27;0.50;;;;;;;21.53;55.01;100581.71;2774129;84;21093;-88
2022/07/11 13:10:00;;;;;;;3.17;0.70;;;;;;;20.88;63.11;100589.66;2770877;85;21060;-89
2022/07/11 13:14:02;;;;;;;3.95;0.78;;;;;;;20.20;67.72;100556.70;2777327;84;21117;-89
2022/07/11 13:18:05;;;;;;;5.62;1.00;;;;;;;19.69;70.43;100555.91;2766240;84;21064;-91
2022/07/11 13:22:06;;;;;;;0.90;0.40;;;;;;;19.42;71.32;100552.68;2770671;84;21045;-91
2022/07/11 13:26:09;;;;;;;2.27;0.78;;;;;;;19.40;71.30;100550.67;2736520;84;21595;-90
2022/07/11 13:30:16;;;;;;;1.05;0.33;;;;;;;19.49;70.65;100544.23;2770403;85;21005;-89
2022/07/11 13:34:18;;;;;;;2.42;0.40;;;;;;;19.61;71.08;100548.70;2773820;85;21048;-94
2022/07/11 13:42:32;;;;;;;1.47;0.55;;;;;;;19.69;69.20;100558.59;2683471;88;21131;-89
2022/07/11 13:46:33;;;;;;;1.72;0.60;;;;;;;19.61;69.26;100562.69;2689053;88;21600;-94
2022/07/11 13:50:35;;;;;;;2.62;0.50;;;;;;;19.59;67.04;100575.52;2683293;88;21082;-87
2022/07/11 13:54:37;;;;;;;0.88;0.50;;;;;;;19.66;68.06;100568.41;2688991;88;21051;-91
2022/07/11 13:58:38;;;;;;;1.50;0.45;;;;;;;19.80;67.23;100563.56;2666332;87;21683;-90
2022/07/11 14:02:39;;;;;;;1.10;0.70;;;;;;;20.04;67.19;100569.81;2688293;88;21124;-92
2022/07/11 14:06:41;;;;;;;1.00;0.50;;;;;;;20.41;66.22;100549.22;2688283;86;21039;-90
2022/07/11 14:10:46;;;;;;;1.27;0.62;;;;;;;20.74;62.34;100549.41;2682050;84;21051;-88
2022/07/11 14:14:48;;;;;;;3.62;0.65;;;;;;;21.12;61.20;100547.92;2689159;87;21072;-89
2022/07/11 14:18:49;;;;;;;2.15;0.72;;;;;;;21.43;59.70;100555.98;2691027;87;21170;-91
2022/07/11 14:22:50;;;;;;;0.75;0.50;;;;;;;21.74;57.96;100548.95;2662729;88;21095;-92
2022/07/11 14:26:52;;;;;;;0.78;0.57;;;;;;;21.93;58.57;100542.06;2689014;88;21575;-89
2022/07/11 14:30:54;;;;;;;1.55;0.72;;;;;;;22.05;57.67;100536.95;2688663;88;21064;-92
2022/07/11 14:34:55;;;;;;;3.90;1.27;;;;;;;22.06;56.23;100533.20;2690272;86;21571;-89
2022/07/11 14:38:57;;;;;;;0.90;0.53;;;;;;;21.94;55.82;100550.51;2674765;86;21040;-89
2022/07/11 14:42:58;;;;;;;2.12;0.53;;;;;;;21.74;57.27;100550.30;2709833;86;21621;-87
2022/07/11 14:46:59;;;;;;;4.12;0.98;;;;;;;21.97;57.33;100541.13;2782220;83;21062;-88
2022/07/11 14:51:10;;;;;;;2.15;0.78;;;;;;;21.99;56.53;100539.06;2771675;83;21569;-88
2022/07/11 14:55:18;;;;;;;1.77;0.75;;;;;;;22.03;56.56;100533.61;2793329;85;21074;-89
2022/07/11 14:59:21;;;;;;;3.10;0.60;;;;;;;21.88;55.82;100535.55;2781013;83;21034;-87
2022/07/11 15:03:38;;;;;;;3.98;0.72;;;;;;;21.86;56.15;100541.67;2790655;83;21090;-86
2022/07/11 15:21:43;;;;;;;1.17;1.00;;;;;;;20.07;74.14;100588.88;2774142;82;76413;-94
2022/07/11 15:25:45;;;;;;;3.40;1.32;;;;;;;19.62;75.30;100592.69;2690094;85;21078;-93
2022/07/11 15:29:47;;;;;;;2.33;0.60;;;;;;;19.42;77.44;100594.48;2726627;86;20988;-93
2022/07/11 15:33:49;;;;;;;1.95;1.00;;;;;;;19.35;78.87;100590.83;2720164;86;21573;-94
2022/07/11 15:37:52;;;;;;;3.92;1.42;;;;;;;19.48;81.99;100593.80;2721617;84;20999;-95
2022/07/11 15:41:54;;;;;;;1.62;0.90;;;;;;;19.69;80.57;100593.68;2731774;84;20956;-93
2022/07/11 15:54:16;;;;;;;1.65;0.90;;;;;;;20.48;82.87;100583.63;2761637;81;71927;-94
2022/07/11 15:58:17;;;;;;;3.95;1.00;;;;;;;20.74;78.86;100582.34;2823347;81;21033;-92
2022/07/11 16:02:19;;;;;;;2.35;0.70;;;;;;;21.03;78.47;100576.61;2798213;83;21075;-92
2022/07/11 16:06:20;;;;;;;7.22;1.07;;;;;;;21.41;75.67;100571.05;2848534;83;21022;-86
2022/07/11 16:10:22;;;;;;;2.90;1.47;;;;;;;21.88;75.81;100565.34;2847420;82;21031;-90
2022/07/11 16:14:24;;;;;;;3.17;0.88;;;;;;;22.24;72.62;100569.81;2812612;83;21013;-90
2022/07/11 16:18:26;;;;;;;2.10;0.98;;;;;;;22.54;69.94;100566.92;2733115;85;21013;-86
2022/07/11 16:22:30;;;;;;;0.93;0.45;;;;;;;22.71;69.36;100569.33;2757373;83;20990;-90
2022/07/11 16:26:31;;;;;;;1.27;0.75;;;;;;;22.91;65.93;100567.56;2760808;84;21100;-90
2022/07/11 16:34:40;;;;;;;3.75;1.05;;;;;;;22.77;63.38;100564.45;2738386;85;21672;-92
2022/07/11 16:51:19;;;;;;;2.52;1.22;;;;;;;22.23;65.03;100565.44;2728389;85;21598;-89
2022/07/11 16:55:20;;;;;;;2.40;0.80;;;;;;;22.23;66.03;100560.02;2753156;85;21675;-93
2022/07/11 16:59:22;;;;;;;3.25;0.88;;;;;;;22.15;65.00;100554.72;2736605;83;21426;-85
2022/07/11 17:07:34;;;;;;;4.10;1.27;;;;;;;21.92;65.66;100550.38;2737788;83;72601;-93
2022/07/11 17:11:35;;;;;;;3.40;0.68;;;;;;;21.64;64.16;100551.95;2823208;84;21020;-93
2022/07/11 17:15:37;;;;;;;2.42;0.82;;;;;;;21.51;65.08;100551.30;2803250;82;21086;-89
2022/07/11 17:19:38;;;;;;;1.87;0.47;;;;;;;21.50;65.81;100548.77;2823073;82;21534;-91
2022/07/11 17:23:40;;;;;;;1.20;0.65;;;;;;;21.53;65.64;100551.12;2774891;82;21534;-89
2022/07/11 17:32:09;;;;;;;0.82;0.40;;;;;;;21.58;64.56;100555.44;2801598;83;72397;-71
2022/07/11 17:36:11;;;;;;;5.50;1.10;;;;;;;21.54;63.99;100554.15;2760254;83;21063;-70
2022/07/11 17:40:15;;;;;;;1.42;0.88;;;;;;;21.44;64.34;100553.11;2760959;85;21109;-72
2022/07/11 17:44:43;;;;;;;4.72;1.27;;;;;;;21.32;64.53;100556.83;2789623;85;21003;-72
2022/07/11 17:48:44;;;;;;;2.35;0.70;;;;;;;21.11;65.50;100564.36;2724531;86;20956;-72
2022/07/11 17:53:02;;;;;;;2.62;0.95;;;;;;;21.12;64.56;100570.09;2758563;86;21152;-74
2022/07/11 17:57:04;;;;;;;3.85;0.82;;;;;;;21.19;64.03;100564.24;2801719;85;20982;-72
2022/07/11 18:01:07;;;;;;;2.58;0.98;;;;;;;21.24;63.55;100567.24;2789458;85;21007;-72
2022/07/11 18:05:09;;;;;;;1.55;0.70;;;;;;;21.31;65.28;100573.23;2785895;85;20972;-73
2022/07/11 18:13:20;;;;;;;5.87;1.05;;;;;;;21.10;67.44;100587.03;2797271;80;21055;-86
2022/07/11 18:17:26;;;;;;;1.50;0.37;;;;;;;21.00;66.78;100582.41;2797297;83;21034;-90
2022/07/11 18:21:26;;;;;;;6.20;1.43;;;;;;;20.65;68.75;100587.84;2799897;83;21023;-90
2022/07/11 18:25:28;;;;;;;1.87;0.42;;;;;;;20.33;69.93;100592.53;2785954;83;21621;-89
2022/07/11 18:29:30;;;;;;;1.25;0.40;;;;;;;20.21;70.37;100598.03;2798848;83;21058;-89
2022/07/11 18:33:31;;;;;;;1.90;1.12;;;;;;;20.02;71.99;100594.81;2807791;83;21050;-88
2022/07/11 18:37:32;;;;;;;3.87;1.42;;;;;;;19.88;71.56;100596.93;2787784;83;21023;-89
2022/07/11 18:41:34;;;;;;;4.67;1.02;;;;;;;19.71;73.02;100597.03;2746376;83;21007;-94
2022/07/11 18:45:40;;;;;;;4.00;1.22;;;;;;;19.36;75.33;100596.06;2810435;82;20980;-90
2022/07/11 18:49:47;;;;;;;14.13;6.10;;;;;;;19.06;76.56;100596.33;2796076;80;21396;-93
2022/07/11 18:53:51;;;;;;;13.30;3.12;;;;;;;18.89;77.48;100590.98;2841824;81;21010;-91
2022/07/11 18:57:53;;;;;;;3.47;1.45;;;;;;;18.80;76.51;100590.66;2811873;82;21048;-92
2022/07/11 19:01:54;;;;;;;2.50;0.80;;;;;;;18.78;76.76;100591.34;2832068;82;20983;-94
2022/07/11 19:05:56;;;;;;;2.87;0.80;;;;;;;18.76;76.82;100598.23;2826055;82;21010;-94
2022/07/11 19:09:57;;;;;;;8.10;1.37;;;;;;;18.67;76.97;100599.28;2837840;81;21030;-94
2022/07/11 19:13:59;;;;;;;5.90;3.40;;;;;;;18.63;76.27;100590.70;2845841;82;21076;-94
2022/07/11 19:18:01;;;;;;;4.55;2.67;;;;;;;18.69;75.97;100600.81;2849766;82;21025;-91
2022/07/11 19:22:02;;;;;;;11.35;3.35;;;;;;;18.65;76.09;100601.31;2848364;82;20934;-94
2022/07/11 19:26:05;;;;;;;9.35;4.08;;;;;;;18.57;75.66;100600.82;2845288;82;21041;-93
2022/07/11 19:30:10;;;;;;;12.95;6.65;;;;;;;18.46;76.36;100602.02;2833658;83;21044;-94
2022/07/11 19:34:11;;;;;;;21.60;7.50;;;;;;;18.40;76.30;100606.74;2849760;83;21044;-89
2022/07/11 19:38:13;;;;;;;16.45;6.83;;;;;;;18.35;76.62;100605.04;2828633;83;21589;-93
2022/07/11 19:42:15;;;;;;;17.25;7.55;;;;;;;18.29;76.73;100610.63;2847334;83;21084;-93
2022/07/11 19:46:16;;;;;;;4.75;2.40;;;;;;;18.27;76.70;100620.69;2848929;83;21002;-93
2022/07/11 19:50:18;;;;;;;5.50;1.45;;;;;;;18.24;76.30;100613.81;2847901;83;21033;-93
2022/07/11 19:58:39;;;;;;;6.22;1.05;;;;;;;17.59;73.97;100611.84;2848140;83;20954;-92
2022/07/11 20:02:41;;;;;;;4.97;1.55;;;;;;;17.36;74.33;100608.41;2804763;83;21488;-93